Time;durP1;ratioP1;P1;durP2;ratioP2;P2;SDS_P1;SDS_P2;PMS_P1;PMS_P2;Temp;Humidity;BMP_temperature;BMP_pressure;BME280_temperature;BME280_humidity;BME280_pressure;Samples;Min_cycle;Max_cycle;Signal;HPM_P1;HPM_P2
2022/08/21 08:12:41;;;;;;;6.45;4.20;;;;;;;25.12;45.74;100469.13;11903330;23;44491;-62
2022/08/21 08:17:33;;;;;;;8.00;4.28;;;;;;;25.38;45.56;100463.25;9807717;28;66673;-61
2022/08/21 08:22:26;;;;;;;9.48;4.18;;;;;;;25.64;45.24;100471.31;9803144;28;66413;-62
2022/08/21 08:27:18;;;;;;;6.30;4.03;;;;;;;25.83;44.67;100468.75;9791224;28;66126;-62
2022/08/21 08:32:11;;;;;;;6.75;4.28;;;;;;;26.01;44.18;100472.13;9804647;28;66338;-62
2022/08/21 08:37:04;;;;;;;7.97;4.55;;;;;;;26.25;43.87;100469.31;9809123;28;66432;-62
2022/08/21 08:42:04;;;;;;;120.90;11.57;;;;;;;26.11;44.02;100457.72;9807429;28;66375;-62
2022/08/21 08:46:56;;;;;;;89.50;9.50;;;;;;;26.44;43.15;100452.81;9815174;28;66255;-62
2022/08/21 08:51:55;;;;;;;40.10;6.13;;;;;;;26.83;42.50;100436.41;9814418;28;65611;-70
2022/08/21 08:56:47;;;;;;;34.95;5.68;;;;;;;27.16;42.40;100434.19;9814330;28;66425;-63
2022/08/21 09:01:39;;;;;;;21.88;5.22;;;;;;;27.39;41.68;100429.63;9811993;28;66386;-67
2022/08/21 09:06:38;;;;;;;18.48;4.72;;;;;;;27.62;41.25;100429.81;9814386;28;66052;-65
2022/08/21 09:11:34;;;;;;;9.05;4.25;;;;;;;27.40;41.89;100417.31;9811345;28;66354;-64
2022/08/21 09:16:30;;;;;;;9.43;4.35;;;;;;;27.10;41.96;100413.38;9808299;28;66120;-72
2022/08/21 09:21:26;;;;;;;7.88;4.90;;;;;;;27.35;41.82;100405.63;9807254;28;65598;-64
2022/08/21 09:26:19;;;;;;;9.80;4.40;;;;;;;26.76;42.83;100411.19;9803844;28;65715;-67
2022/08/21 09:31:17;;;;;;;9.60;3.90;;;;;;;26.57;43.35;100409.09;9810526;28;66305;-64
2022/08/21 09:36:09;;;;;;;8.07;3.70;;;;;;;26.45;42.34;100409.97;9811182;28;66226;-70
2022/08/21 09:41:03;;;;;;;6.53;3.22;;;;;;;26.46;42.09;100416.31;9810548;28;66110;-69
2022/08/21 09:46:09;;;;;;;6.55;4.03;;;;;;;26.30;42.07;100416.28;9807603;28;65706;-69
2022/08/21 09:51:08;;;;;;;7.22;4.07;;;;;;;26.37;41.78;100405.34;9814139;28;65482;-69
2022/08/21 10:01:14;;;;;;;8.13;3.40;;;;;;;26.27;42.42;100405.84;9810940;29;66667;-70
2022/08/21 10:06:10;;;;;;;7.28;3.88;;;;;;;26.29;42.03;100397.97;9812238;28;65838;-74
2022/08/21 10:11:03;;;;;;;6.78;3.40;;;;;;;26.14;41.80;100395.91;9807513;28;65552;-75
2022/08/21 10:16:01;;;;;;;9.40;3.30;;;;;;;26.18;41.50;100380.13;9808772;28;66401;-75
2022/08/21 10:20:57;;;;;;;6.28;3.50;;;;;;;26.34;41.50;100377.44;9806716;28;65591;-74
2022/08/21 10:25:51;;;;;;;6.55;3.90;;;;;;;26.35;41.96;100371.53;9805756;28;66486;-75
2022/08/21 10:30:53;;;;;;;7.38;3.95;;;;;;;26.35;41.29;100365.16;9807256;28;66413;-73
2022/08/21 10:35:48;;;;;;;8.43;3.72;;;;;;;26.30;40.56;100366.25;9807426;28;65430;-72
2022/08/21 10:40:43;;;;;;;6.20;3.70;;;;;;;26.48;40.90;100370.31;9814815;28;65556;-66
2022/08/21 10:45:43;;;;;;;7.57;3.53;;;;;;;26.57;41.06;100356.25;9812973;28;66489;-72
2022/08/21 10:50:38;;;;;;;7.25;3.50;;;;;;;26.48;40.32;100353.63;9808261;28;65594;-76
2022/08/21 10:55:32;;;;;;;8.10;3.33;;;;;;;26.47;40.05;100342.84;9801640;28;66337;-73
2022/08/21 11:00:30;;;;;;;6.53;3.20;;;;;;;26.58;40.03;100342.00;9807926;28;65527;-76
2022/08/21 11:05:26;;;;;;;6.18;3.60;;;;;;;26.49;39.62;100348.88;9803330;28;66036;-65
2022/08/21 11:10:22;;;;;;;6.47;3.53;;;;;;;26.47;39.07;100340.06;9806910;28;65471;-66
2022/08/21 11:15:25;;;;;;;11.82;4.05;;;;;;;26.54;39.24;100329.16;9808541;28;66384;-66
2022/08/21 11:20:20;;;;;;;7.20;3.45;;;;;;;26.45;38.65;100321.00;9803891;28;65582;-66
2022/08/21 11:25:16;;;;;;;7.05;3.42;;;;;;;26.46;38.98;100325.38;9798903;28;66557;-66
2022/08/21 11:30:09;;;;;;;8.25;3.42;;;;;;;26.50;38.50;100322.69;9808406;28;65494;-66
2022/08/21 11:35:04;;;;;;;10.35;3.45;;;;;;;26.62;38.57;100314.28;9807279;28;66342;-67
2022/08/21 11:40:00;;;;;;;4.47;3.08;;;;;;;26.64;38.82;100314.72;9807726;28;66397;-64
2022/08/21 11:44:57;;;;;;;7.15;3.25;;;;;;;26.63;39.08;100311.13;9806431;28;65847;-66
2022/08/21 11:49:58;;;;;;;7.50;3.15;;;;;;;26.71;39.04;100308.53;9803755;28;66815;-66
2022/08/21 11:54:54;;;;;;;6.47;3.00;;;;;;;26.73;39.13;100300.66;9807368;28;66284;-66
2022/08/21 11:59:48;;;;;;;6.78;2.80;;;;;;;26.68;38.60;100299.75;9800499;28;65760;-75
2022/08/21 12:04:46;;;;;;;6.32;3.05;;;;;;;26.79;38.56;100300.03;9802799;28;65557;-72
2022/08/21 12:09:38;;;;;;;6.72;3.28;;;;;;;26.85;39.00;100289.44;9801351;28;66378;-73
2022/08/21 12:14:37;;;;;;;6.93;3.13;;;;;;;26.89;38.70;100291.16;9805685;28;65539;-73
2022/08/21 12:19:31;;;;;;;7.28;2.85;;;;;;;26.89;37.70;100290.34;9803696;28;66176;-74
2022/08/21 12:24:33;;;;;;;4.93;2.60;;;;;;;26.95;38.19;100273.06;9807513;28;65514;-75
2022/08/21 12:29:27;;;;;;;5.18;2.53;;;;;;;26.92;37.23;100278.53;9807099;28;65556;-77
2022/08/21 12:34:19;;;;;;;4.93;2.88;;;;;;;26.94;36.97;100282.56;9809996;28;65575;-74
2022/08/21 12:39:13;;;;;;;5.68;2.63;;;;;;;26.97;37.04;100283.84;9811234;28;66344;-75
2022/08/21 12:44:09;;;;;;;6.43;2.92;;;;;;;26.97;37.46;100267.91;9810312;28;66318;-76
2022/08/21 12:49:04;;;;;;;4.80;2.50;;;;;;;27.00;37.56;100277.53;9807215;28;66502;-70
2022/08/21 12:53:57;;;;;;;8.52;2.70;;;;;;;27.02;37.71;100264.88;9803857;28;65751;-75
2022/08/21 12:58:50;;;;;;;8.70;2.90;;;;;;;27.05;37.53;100260.53;9809908;28;65725;-67
2022/08/21 13:03:43;;;;;;;6.43;2.70;;;;;;;26.96;37.37;100268.31;9824723;28;65436;-66
2022/08/21 13:08:36;;;;;;;6.55;2.40;;;;;;;26.93;37.32;100264.25;9815380;29;64485;-66
2022/08/21 13:13:28;;;;;;;4.90;2.83;;;;;;;26.94;37.02;100260.31;9812646;29;66851;-66
2022/08/21 13:18:22;;;;;;;5.63;2.20;;;;;;;26.96;37.25;100257.16;9815253;29;65495;-66
2022/08/21 13:23:21;;;;;;;4.90;2.40;;;;;;;26.94;36.65;100251.97;9813593;28;66417;-66
2022/08/21 13:28:14;;;;;;;3.92;2.20;;;;;;;26.94;36.44;100251.16;9814001;29;65651;-65
2022/08/21 13:33:07;;;;;;;4.45;2.40;;;;;;;26.91;35.78;100241.53;9814116;29;65590;-63
2022/08/21 13:37:59;;;;;;;4.15;2.22;;;;;;;27.04;36.00;100243.06;9812504;29;66456;-73
2022/08/21 13:42:52;;;;;;;4.85;2.20;;;;;;;26.98;35.05;100238.13;9806282;28;66306;-71
2022/08/21 13:47:45;;;;;;;6.57;2.38;;;;;;;27.00;35.16;100238.56;9809312;28;66040;-72
2022/08/21 13:52:47;;;;;;;4.85;2.40;;;;;;;27.01;35.78;100237.41;9813111;29;66353;-72
2022/08/21 13:57:39;;;;;;;7.15;2.03;;;;;;;27.02;35.68;100227.91;9813750;29;65689;-73
2022/08/21 14:02:39;;;;;;;6.78;2.42;;;;;;;27.00;36.11;100227.44;9815482;29;65614;-73
2022/08/21 14:07:32;;;;;;;4.68;1.92;;;;;;;27.03;35.50;100221.16;9821641;28;65587;-71
2022/08/21 14:12:27;;;;;;;4.43;2.15;;;;;;;27.01;35.82;100221.53;9812304;29;66612;-68
2022/08/21 14:17:27;;;;;;;5.25;2.38;;;;;;;27.01;35.98;100207.59;9782807;29;65614;-71
2022/08/21 14:22:28;;;;;;;9.50;2.33;;;;;;;27.01;35.44;100212.38;9805902;28;66901;-69
2022/08/21 14:27:20;;;;;;;5.32;2.00;;;;;;;27.00;36.09;100207.97;9810618;29;65619;-69
2022/08/21 14:32:14;;;;;;;5.05;1.92;;;;;;;27.01;35.41;100202.03;9812925;28;66312;-73
2022/08/21 14:37:06;;;;;;;6.22;2.13;;;;;;;27.05;34.30;100210.47;9827211;28;66348;-70
2022/08/21 14:42:00;;;;;;;5.00;2.25;;;;;;;27.04;34.84;100198.56;9777047;29;66257;-65
2022/08/21 14:46:52;;;;;;;3.63;1.90;;;;;;;27.07;35.38;100199.78;9808674;28;65477;-68
2022/08/21 14:51:44;;;;;;;5.28;1.88;;;;;;;27.06;34.93;100181.47;9816671;28;65298;-68
2022/08/21 14:56:36;;;;;;;4.07;1.90;;;;;;;27.09;35.76;100183.53;9811037;29;65501;-66
2022/08/21 15:01:30;;;;;;;3.65;2.10;;;;;;;27.11;35.50;100188.75;9810872;29;66132;-68
2022/08/21 15:06:22;;;;;;;3.58;1.80;;;;;;;27.12;34.79;100179.22;9809584;29;67696;-72
2022/08/21 15:11:18;;;;;;;4.32;1.70;;;;;;;27.08;34.47;100187.47;9808965;29;66414;-73
2022/08/21 15:16:10;;;;;;;4.38;1.83;;;;;;;27.04;34.89;100181.03;9810305;29;65612;-72
2022/08/21 15:21:04;;;;;;;2.55;1.73;;;;;;;27.11;34.82;100192.34;9810494;29;65521;-70
2022/08/21 15:25:57;;;;;;;3.22;1.85;;;;;;;27.09;34.77;100188.28;9803969;28;66248;-70
2022/08/21 15:30:49;;;;;;;4.80;1.73;;;;;;;27.10;35.03;100185.16;9811418;29;66396;-71
2022/08/21 15:35:41;;;;;;;3.92;2.08;;;;;;;27.14;34.99;100182.44;9817034;28;65605;-71
2022/08/21 15:40:36;;;;;;;4.22;2.15;;;;;;;27.09;34.79;100175.19;9812660;29;65266;-71
2022/08/21 15:45:28;;;;;;;6.10;2.08;;;;;;;27.08;33.68;100176.34;9808018;29;65443;-67
2022/08/21 15:50:20;;;;;;;3.97;2.20;;;;;;;27.10;34.00;100174.03;9809232;29;65586;-65
2022/08/21 15:55:12;;;;;;;4.32;1.52;;;;;;;27.09;34.13;100171.59;9809414;29;65669;-67
2022/08/21 16:00:12;;;;;;;4.30;1.75;;;;;;;27.12;34.21;100165.31;9810695;29;65518;-66
2022/08/21 16:05:05;;;;;;;3.55;2.00;;;;;;;27.03;34.28;100157.16;9806817;29;65630;-65
2022/08/21 16:09:57;;;;;;;4.53;2.05;;;;;;;27.00;34.19;100174.56;9808311;28;66486;-64
2022/08/21 16:14:50;;;;;;;4.00;2.08;;;;;;;27.00;33.80;100167.03;9803798;28;65591;-64
2022/08/21 16:19:43;;;;;;;4.78;2.00;;;;;;;26.99;34.39;100168.19;9803903;29;66259;-65
2022/08/21 16:24:36;;;;;;;3.35;1.73;;;;;;;26.99;34.00;100165.41;9807655;29;66695;-65
2022/08/21 16:29:28;;;;;;;2.60;1.55;;;;;;;26.95;34.55;100161.75;9807673;29;65472;-65
2022/08/21 16:34:20;;;;;;;3.83;2.00;;;;;;;26.93;33.54;100161.31;9807995;29;65326;-66
2022/08/21 16:39:13;;;;;;;5.47;1.42;;;;;;;27.02;33.82;100152.75;9800282;28;66832;-65
2022/08/21 16:44:05;;;;;;;3.03;1.55;;;;;;;26.98;34.07;100146.28;9807636;28;66338;-65
2022/08/21 16:48:57;;;;;;;3.33;1.63;;;;;;;26.94;33.56;100146.22;9806337;28;63903;-65
2022/08/21 16:53:50;;;;;;;3.65;1.58;;;;;;;26.93;32.75;100141.03;9804425;28;66333;-65
2022/08/21 16:58:45;;;;;;;4.93;1.77;;;;;;;26.93;33.12;100135.47;9796759;28;65726;-65
2022/08/21 17:03:38;;;;;;;3.83;1.50;;;;;;;27.02;33.65;100138.84;9812618;28;65587;-70
2022/08/21 17:08:30;;;;;;;5.85;1.73;;;;;;;27.00;33.86;100133.66;9816017;28;65627;-71
2022/08/21 17:13:22;;;;;;;4.68;1.60;;;;;;;27.01;34.73;100137.22;9810047;28;66429;-70
2022/08/21 17:18:17;;;;;;;2.67;1.45;;;;;;;27.00;35.18;100133.66;9807381;28;66435;-69
2022/08/21 17:23:09;;;;;;;4.43;1.80;;;;;;;26.98;35.47;100132.38;9806038;28;66304;-69
2022/08/21 17:28:03;;;;;;;3.08;1.85;;;;;;;26.96;35.10;100134.75;9813385;28;66313;-69
2022/08/21 17:32:55;;;;;;;3.78;2.10;;;;;;;26.91;35.85;100141.38;9812710;28;65269;-70
2022/08/21 17:37:49;;;;;;;5.57;2.60;;;;;;;26.90;36.38;100134.19;9814436;28;66386;-70
2022/08/21 17:42:41;;;;;;;4.38;2.60;;;;;;;26.87;36.43;100134.91;9798587;28;66322;-70
2022/08/21 17:47:34;;;;;;;8.75;2.72;;;;;;;26.84;35.95;100130.06;9809905;28;65474;-65
2022/08/21 17:52:26;;;;;;;4.70;2.13;;;;;;;26.88;35.04;100130.16;9812993;28;65611;-64
2022/08/21 17:57:20;;;;;;;3.58;1.80;;;;;;;26.73;34.33;100131.00;9809519;28;65575;-64
2022/08/21 18:02:12;;;;;;;5.15;1.52;;;;;;;26.75;35.20;100134.22;9803595;28;66407;-64
2022/08/21 18:07:05;;;;;;;5.35;1.85;;;;;;;26.61;34.94;100129.94;9808421;28;66375;-69
2022/08/21 18:11:57;;;;;;;4.65;2.17;;;;;;;26.62;35.01;100142.66;9806585;28;66000;-71
2022/08/21 18:16:50;;;;;;;10.30;1.95;;;;;;;26.55;35.19;100145.28;9815620;28;65404;-63
2022/08/21 18:21:43;;;;;;;3.25;1.70;;;;;;;26.51;35.78;100146.38;9799270;29;65481;-71
2022/08/21 18:26:37;;;;;;;4.28;2.60;;;;;;;26.74;36.34;100147.34;9815011;29;66387;-71
2022/08/21 18:31:30;;;;;;;6.05;2.70;;;;;;;26.73;36.64;100148.50;9813023;29;66294;-71
2022/08/21 18:36:23;;;;;;;5.22;2.15;;;;;;;26.72;36.65;100165.53;9812061;28;66431;-72
2022/08/21 18:41:15;;;;;;;6.68;2.42;;;;;;;26.66;36.47;100171.38;9812258;29;66396;-66
2022/08/21 18:46:08;;;;;;;4.68;2.38;;;;;;;26.71;36.75;100180.59;9807985;28;66305;-63
2022/08/21 18:51:01;;;;;;;7.95;2.22;;;;;;;26.69;36.49;100180.97;9808250;28;65290;-64
2022/08/21 18:55:54;;;;;;;3.78;2.10;;;;;;;26.59;36.08;100178.75;9808777;28;66087;-65
2022/08/21 19:00:48;;;;;;;6.07;2.40;;;;;;;26.46;36.65;100178.00;9804908;28;65627;-63
2022/08/21 19:05:43;;;;;;;9.07;2.35;;;;;;;26.38;36.70;100189.34;9803233;28;66350;-66
2022/08/21 19:10:36;;;;;;;4.47;2.35;;;;;;;26.32;36.95;100188.78;9805253;28;66864;-65
2022/08/21 19:15:29;;;;;;;4.32;2.17;;;;;;;26.37;37.33;100190.50;9806282;28;65557;-64
2022/08/21 19:20:25;;;;;;;3.05;2.08;;;;;;;26.22;36.84;100192.06;9807104;28;65898;-64
2022/08/21 19:25:18;;;;;;;5.13;1.95;;;;;;;26.11;37.05;100200.09;9800940;28;66391;-64
2022/08/21 19:30:10;;;;;;;3.20;1.90;;;;;;;26.14;37.15;100199.41;9804686;28;66365;-64
2022/08/21 19:35:04;;;;;;;5.75;2.30;;;;;;;26.12;36.79;100203.69;9800374;28;65596;-66
2022/08/21 19:39:56;;;;;;;4.55;2.30;;;;;;;26.06;36.80;100205.94;9802366;28;66372;-64
2022/08/21 19:44:49;;;;;;;3.90;2.30;;;;;;;26.03;37.09;100211.38;9802399;28;66210;-63
2022/08/21 19:49:41;;;;;;;4.60;2.17;;;;;;;25.96;36.80;100214.78;9797240;28;65307;-64
2022/08/21 19:54:36;;;;;;;4.75;2.05;;;;;;;25.92;36.75;100215.84;9808519;28;66541;-63
2022/08/21 19:59:28;;;;;;;4.05;2.30;;;;;;;25.89;36.97;100214.56;9807554;28;66028;-64
2022/08/21 20:04:20;;;;;;;3.80;2.15;;;;;;;25.88;36.95;100216.53;9814080;28;66310;-64
2022/08/21 20:09:12;;;;;;;3.85;2.45;;;;;;;25.87;37.10;100212.16;9805902;28;65387;-65
2022/08/21 20:14:06;;;;;;;5.20;2.22;;;;;;;25.72;37.26;100212.91;9800544;28;66408;-63
2022/08/21 20:18:58;;;;;;;3.10;2.40;;;;;;;25.73;37.23;100210.94;9787582;29;66386;-64
2022/08/21 20:23:51;;;;;;;4.80;2.72;;;;;;;25.65;37.07;100217.44;9791609;29;66468;-65
2022/08/21 20:28:43;;;;;;;4.65;2.55;;;;;;;25.64;37.87;100216.63;9784143;29;66415;-63
2022/08/21 20:33:36;;;;;;;4.97;2.30;;;;;;;25.61;38.25;100214.59;9781660;29;65292;-63
2022/08/21 20:38:28;;;;;;;5.28;2.45;;;;;;;25.55;38.78;100221.50;9770851;29;66424;-63
2022/08/21 20:43:21;;;;;;;5.40;2.30;;;;;;;25.45;38.38;100224.78;9777357;29;66453;-65
2022/08/21 20:48:16;;;;;;;4.22;2.45;;;;;;;25.39;38.22;100215.88;9802037;29;66438;-64
2022/08/21 20:53:12;;;;;;;3.42;2.30;;;;;;;25.31;38.13;100227.13;9784029;29;66517;-65
2022/08/21 20:58:07;;;;;;;5.47;2.28;;;;;;;25.34;38.05;100231.97;9757862;29;65530;-64
2022/08/21 21:03:01;;;;;;;6.88;2.53;;;;;;;25.26;38.17;100233.72;9774914;29;65591;-65
2022/08/21 21:07:57;;;;;;;3.47;1.98;;;;;;;25.22;38.03;100245.84;9778818;29;66264;-64
2022/08/21 21:12:51;;;;;;;5.18;2.08;;;;;;;25.16;38.04;100245.28;9784522;29;66241;-64
2022/08/21 21:17:45;;;;;;;4.57;2.10;;;;;;;25.10;37.91;100249.47;9823559;29;66067;-71
2022/08/21 21:22:40;;;;;;;2.67;1.75;;;;;;;25.15;37.91;100243.69;9821774;29;65620;-70
2022/08/21 21:27:34;;;;;;;4.03;2.03;;;;;;;25.05;38.01;100239.41;9822024;29;66330;-71
2022/08/21 21:32:28;;;;;;;4.97;2.20;;;;;;;25.06;38.10;100248.53;9819332;29;66540;-70
2022/08/21 21:37:21;;;;;;;2.30;1.67;;;;;;;25.09;38.26;100253.41;9821385;29;65572;-64
2022/08/21 21:42:17;;;;;;;4.07;1.90;;;;;;;25.16;37.88;100263.91;9817260;29;66448;-64
2022/08/21 21:47:15;;;;;;;2.13;1.45;;;;;;;25.00;38.31;100264.59;9818604;29;65050;-64
2022/08/21 21:52:17;;;;;;;2.60;1.45;;;;;;;24.97;38.50;100267.28;9817899;29;65025;-64
2022/08/21 21:57:14;;;;;;;3.20;1.75;;;;;;;24.96;38.47;100269.25;9816698;29;66589;-64
2022/08/21 22:02:08;;;;;;;4.47;1.73;;;;;;;24.91;38.61;100269.44;9815840;29;65460;-64
2022/08/21 22:07:04;;;;;;;3.17;1.88;;;;;;;24.93;38.62;100269.91;9814071;29;67064;-64
2022/08/21 22:12:02;;;;;;;2.30;1.60;;;;;;;24.88;38.84;100261.81;9815325;29;65508;-64
2022/08/21 22:16:54;;;;;;;3.72;1.67;;;;;;;24.91;38.74;100271.41;9814909;28;65706;-65
2022/08/21 22:21:50;;;;;;;3.53;1.90;;;;;;;24.91;39.09;100272.22;9814321;29;65574;-65
2022/08/21 22:26:45;;;;;;;2.45;1.65;;;;;;;24.85;38.85;100281.09;9814914;29;66335;-65
2022/08/21 22:31:39;;;;;;;4.63;1.90;;;;;;;24.88;38.86;100275.69;9815975;29;65472;-65
2022/08/21 22:36:32;;;;;;;3.25;1.60;;;;;;;24.83;39.06;100275.06;9813921;29;66406;-65
2022/08/21 22:41:26;;;;;;;2.53;1.50;;;;;;;24.82;39.07;100273.47;9813228;29;65745;-65
2022/08/21 22:46:22;;;;;;;3.53;1.50;;;;;;;24.75;39.34;100274.84;9814121;29;65468;-65
2022/08/21 22:51:26;;;;;;;2.20;1.30;;;;;;;24.72;39.33;100277.50;9812776;29;65581;-65
2022/08/21 22:56:27;;;;;;;3.65;1.83;;;;;;;24.73;39.28;100273.59;9813643;29;64088;-65
2022/08/21 23:01:32;;;;;;;2.88;1.90;;;;;;;24.68;39.48;100280.13;9814241;29;65758;-65
2022/08/21 23:06:31;;;;;;;4.10;2.08;;;;;;;24.67;39.56;100280.50;9813176;29;66432;-65
2022/08/21 23:11:26;;;;;;;5.03;1.88;;;;;;;24.63;39.73;100274.00;9813416;29;66518;-65
2022/08/21 23:16:44;;;;;;;3.90;1.55;;;;;;;24.62;39.71;100277.94;9813924;29;66446;-65
2022/08/21 23:21:41;;;;;;;2.70;1.48;;;;;;;24.62;39.80;100275.97;9813249;29;66361;-65
2022/08/21 23:26:37;;;;;;;2.50;1.58;;;;;;;24.57;39.92;100278.97;9813888;29;66459;-65
2022/08/21 23:31:32;;;;;;;1.90;1.30;;;;;;;24.53;40.00;100269.72;9812833;29;66482;-65
2022/08/21 23:41:42;;;;;;;4.40;1.38;;;;;;;24.46;40.52;100265.88;9814037;29;66966;-65
2022/08/21 23:46:49;;;;;;;4.00;1.30;;;;;;;24.51;40.36;100274.00;9812803;29;66153;-65
2022/08/21 23:51:43;;;;;;;2.75;1.38;;;;;;;24.47;40.35;100275.81;9811501;29;65809;-65
2022/08/21 23:56:46;;;;;;;2.60;1.20;;;;;;;24.43;40.51;100277.69;9811936;29;66423;-65
